createdAt,value
2022-09-28T00:00:12.433Z,5.72
2022-09-28T00:05:14.945Z,5.32
2022-09-28T00:10:19.022Z,4.88
2022-09-28T00:15:22.909Z,9.07
2022-09-28T00:20:25.703Z,16.35
2022-09-28T00:25:29.647Z,5.93
2022-09-28T00:30:31.902Z,8.18
2022-09-28T00:35:34.123Z,2.30
2022-09-28T00:40:38.197Z,15.35
2022-09-28T00:45:41.080Z,7.25
2022-09-28T00:50:45.290Z,3.20
2022-09-28T00:55:54.384Z,3.22
2022-09-28T01:00:59.614Z,5.38
2022-09-28T01:06:05.388Z,6.22
2022-09-28T01:11:09.364Z,4.22
2022-09-28T01:16:19.810Z,5.07
2022-09-28T01:21:24.378Z,4.40
2022-09-28T01:26:42.172Z,5.25
2022-09-28T01:31:48.887Z,4.50
2022-09-28T01:36:55.606Z,7.18
2022-09-28T01:42:04.662Z,11.13
2022-09-28T01:47:10.825Z,99.78
2022-09-28T01:52:20.063Z,12.70
2022-09-28T01:57:29.777Z,6.50
2022-09-28T02:02:35.531Z,4.43
2022-09-28T02:07:42.346Z,6.65
2022-09-28T02:12:50.195Z,6.05
2022-09-28T02:17:53.384Z,11.07
2022-09-28T02:22:58.581Z,4.00
2022-09-28T02:28:05.355Z,182.48
2022-09-28T02:33:13.184Z,198.48
2022-09-28T02:38:15.823Z,159.32
2022-09-28T02:43:25.067Z,135.50
2022-09-28T02:48:43.938Z,6.90
2022-09-28T02:54:07.734Z,5.07
2022-09-28T02:59:20.879Z,8.63
2022-09-28T03:04:35.294Z,2.70
2022-09-28T03:09:47.109Z,10.93
2022-09-28T03:15:07.607Z,20.95
2022-09-28T03:20:11.653Z,47.28
2022-09-28T03:25:15.075Z,87.32
2022-09-28T03:30:18.970Z,51.53
2022-09-28T03:35:21.394Z,55.85
2022-09-28T03:40:24.205Z,53.95
2022-09-28T03:45:28.533Z,28.13
2022-09-28T03:50:31.286Z,20.50
2022-09-28T03:55:33.874Z,56.70
2022-09-28T04:00:38.574Z,23.73
2022-09-28T04:05:49.158Z,29.27
2022-09-28T04:10:51.945Z,30.38
2022-09-28T04:15:59.176Z,10.18
2022-09-28T04:21:04.506Z,27.35
2022-09-28T04:26:08.619Z,12.15
2022-09-28T04:31:16.946Z,7.88
2022-09-28T04:36:20.283Z,5.70
2022-09-28T04:41:22.869Z,7.63
2022-09-28T04:46:26.922Z,2.50
2022-09-28T04:51:31.621Z,8.88
2022-09-28T04:56:34.095Z,13.98
2022-09-28T05:01:38.426Z,18.00
2022-09-28T05:06:41.281Z,46.38
2022-09-28T05:11:44.138Z,22.42
2022-09-28T05:16:48.697Z,50.20
2022-09-28T05:21:51.666Z,56.78
2022-09-28T05:26:54.786Z,57.00
2022-09-28T05:32:00.435Z,32.55
2022-09-28T05:37:03.122Z,19.73
2022-09-28T05:42:06.071Z,12.63
2022-09-28T05:47:10.312Z,10.55
2022-09-28T05:52:12.717Z,23.58
2022-09-28T05:57:15.870Z,47.47
2022-09-28T06:02:20.233Z,39.22
2022-09-28T06:07:23.101Z,12.38
2022-09-28T06:12:25.843Z,22.60
2022-09-28T06:17:29.626Z,17.15
2022-09-28T06:22:32.263Z,19.98
2022-09-28T06:27:34.931Z,10.02
2022-09-28T06:32:39.000Z,28.20
2022-09-28T06:37:44.030Z,22.05
2022-09-28T06:42:56.132Z,43.83
2022-09-28T06:48:02.319Z,70.97
2022-09-28T06:53:05.985Z,43.53
2022-09-28T06:58:11.819Z,28.30
2022-09-28T07:03:17.563Z,15.95
2022-09-28T07:08:23.084Z,81.00
2022-09-28T07:13:49.194Z,65.65
2022-09-28T07:18:51.578Z,22.58
2022-09-28T07:23:54.523Z,56.17
2022-09-28T07:28:57.337Z,16.45
2022-09-28T07:34:01.522Z,74.25
2022-09-28T07:39:04.310Z,57.38
2022-09-28T07:44:07.780Z,34.58
2022-09-28T07:49:12.478Z,30.08
2022-09-28T07:54:15.136Z,31.83
2022-09-28T07:59:18.205Z,29.27
2022-09-28T08:04:22.695Z,14.68
2022-09-28T08:09:25.401Z,18.58
2022-09-28T08:14:28.323Z,16.15
2022-09-28T08:19:33.136Z,23.33
2022-09-28T08:24:35.663Z,7.32
2022-09-28T08:29:38.304Z,7.05
2022-09-28T08:34:42.307Z,5.85
2022-09-28T08:39:44.930Z,5.20
2022-09-28T08:44:50.720Z,4.93
2022-09-28T08:55:03.900Z,4.82
2022-09-28T09:00:11.544Z,3.50
2022-09-28T09:05:18.332Z,4.20
2022-09-28T09:10:38.953Z,15.90
2022-09-28T09:15:50.152Z,9.07
2022-09-28T09:20:57.283Z,5.28
2022-09-28T09:26:06.194Z,4.00
2022-09-28T09:31:21.920Z,4.10
2022-09-28T09:36:41.220Z,4.22
2022-09-28T09:41:57.643Z,5.35
2022-09-28T09:47:05.957Z,5.22
2022-09-28T09:52:16.412Z,5.43
2022-09-28T09:57:24.479Z,4.57
2022-09-28T10:02:29.233Z,3.30
2022-09-28T10:07:43.141Z,3.47
2022-09-28T10:12:46.254Z,3.25
2022-09-28T10:17:48.734Z,3.33
2022-09-28T10:22:56.537Z,3.08
2022-09-28T10:28:01.403Z,3.47
2022-09-28T10:33:04.211Z,2.83
2022-09-28T10:38:14.614Z,3.00
2022-09-28T10:43:22.068Z,2.03
2022-09-28T10:48:24.764Z,2.45
2022-09-28T10:53:28.840Z,7.28
2022-09-28T10:58:37.471Z,4.88
2022-09-28T11:03:51.087Z,4.45
2022-09-28T11:08:56.988Z,2.50
2022-09-28T11:14:02.388Z,2.83
2022-09-28T11:19:26.504Z,1.73
2022-09-28T11:24:30.972Z,2.40
2022-09-28T11:29:38.778Z,2.60
2022-09-28T11:34:59.224Z,1.98
2022-09-28T11:40:16.864Z,1.20
2022-09-28T11:45:34.342Z,1.55
2022-09-28T11:50:46.034Z,1.15
2022-09-28T11:55:56.460Z,1.02
2022-09-28T12:01:05.947Z,1.42
2022-09-28T12:06:14.480Z,1.02
2022-09-28T12:11:25.465Z,2.35
2022-09-28T12:22:03.100Z,6.47
2022-09-28T12:27:14.626Z,1.83
2022-09-28T12:32:29.411Z,2.50
2022-09-28T12:37:46.712Z,1.25
2022-09-28T12:43:09.550Z,1.95
2022-09-28T12:48:36.219Z,1.17
2022-09-28T12:54:11.236Z,1.00
2022-09-28T12:59:24.927Z,0.80
2022-09-28T13:05:00.676Z,1.05
2022-09-28T13:10:12.578Z,1.00
2022-09-28T13:15:40.185Z,0.57
2022-09-28T13:20:56.728Z,1.50
2022-09-28T13:26:07.370Z,1.02
2022-09-28T13:31:17.007Z,1.27
2022-09-28T13:36:38.445Z,1.25
2022-09-28T13:41:48.698Z,1.13
2022-09-28T13:47:19.973Z,1.80
2022-09-28T13:52:40.054Z,0.95
2022-09-28T13:57:48.928Z,0.75
2022-09-28T14:02:59.196Z,0.55
2022-09-28T14:08:30.468Z,0.52
2022-09-28T14:14:02.226Z,0.50
2022-09-28T14:19:12.351Z,1.88
2022-09-28T14:24:37.403Z,2.72
2022-09-28T14:29:40.512Z,9.85
2022-09-28T14:34:48.261Z,4.63
2022-09-28T14:39:51.746Z,3.63
2022-09-28T14:45:35.127Z,36.50
2022-09-28T14:50:39.599Z,3.70
2022-09-28T14:55:47.277Z,1.50
2022-09-28T15:00:56.098Z,3.58
2022-09-28T15:06:00.268Z,1.10
2022-09-28T15:11:02.706Z,2.75
2022-09-28T15:16:08.432Z,2.90
2022-09-28T15:21:13.477Z,2.75
2022-09-28T15:26:25.314Z,2.17
2022-09-28T15:31:30.886Z,1.50
2022-09-28T15:36:39.752Z,1.20
2022-09-28T15:41:43.608Z,1.77
2022-09-28T15:46:47.836Z,1.73
2022-09-28T15:51:54.866Z,1.08
2022-09-28T15:56:59.222Z,0.80
2022-09-28T16:02:20.630Z,1.25
2022-09-28T16:07:33.574Z,26.38
2022-09-28T16:12:45.144Z,29.60
2022-09-28T16:17:53.549Z,3.83
2022-09-28T16:23:00.114Z,4.43
2022-09-28T16:28:02.692Z,4.00
2022-09-28T16:33:06.473Z,4.78
2022-09-28T16:38:14.296Z,4.95
2022-09-28T16:43:21.513Z,4.68
2022-09-28T16:53:29.579Z,2.03
2022-09-28T16:58:32.616Z,1.90
2022-09-28T17:03:35.761Z,2.88
2022-09-28T17:08:39.768Z,2.03
2022-09-28T17:13:42.612Z,3.55
2022-09-28T17:18:45.555Z,2.20
2022-09-28T17:23:50.399Z,3.90
2022-09-28T17:28:53.059Z,4.28
2022-09-28T17:33:55.695Z,7.75
2022-09-28T17:39:01.300Z,6.50
2022-09-28T17:44:03.985Z,12.32
2022-09-28T17:49:08.180Z,10.48
2022-09-28T17:54:12.309Z,4.07
2022-09-28T17:59:17.662Z,4.32
2022-09-28T18:04:47.138Z,7.10
2022-09-28T18:09:44.059Z,8.93
2022-09-28T18:14:46.452Z,5.18
2022-09-28T18:19:48.909Z,66.95
2022-09-28T18:24:53.183Z,16.40
2022-09-28T18:29:55.604Z,7.25
2022-09-28T18:34:59.665Z,8.00
2022-09-28T18:40:04.397Z,9.32
2022-09-28T18:45:09.451Z,4.85
2022-09-28T18:50:12.972Z,6.22
2022-09-28T18:55:17.029Z,6.43
2022-09-28T19:00:19.754Z,7.40
2022-09-28T19:05:22.529Z,10.18
2022-09-28T19:10:26.891Z,11.30
2022-09-28T19:15:29.541Z,51.10
2022-09-28T19:20:33.737Z,16.13
2022-09-28T19:25:37.832Z,12.02
2022-09-28T19:30:40.995Z,7.00
2022-09-28T19:35:43.634Z,9.60
2022-09-28T19:40:47.638Z,49.85
2022-09-28T19:45:51.210Z,109.78
2022-09-28T19:50:57.013Z,47.30
2022-09-28T19:56:01.720Z,57.47
2022-09-28T20:01:07.175Z,16.27
2022-09-28T20:06:11.828Z,15.82
2022-09-28T20:11:19.776Z,5.13
2022-09-28T20:16:22.196Z,43.42
2022-09-28T20:21:27.275Z,38.88
2022-09-28T20:26:31.352Z,9.38
2022-09-28T20:31:35.151Z,22.70
2022-09-28T20:36:38.177Z,12.45
2022-09-28T20:41:42.455Z,11.52
2022-09-28T20:46:45.073Z,11.52
2022-09-28T20:51:47.418Z,6.50
2022-09-28T20:56:51.251Z,72.25
2022-09-28T21:01:54.277Z,15.90
2022-09-28T21:06:57.056Z,9.02
2022-09-28T21:12:01.698Z,12.07
2022-09-28T21:17:04.440Z,7.15
2022-09-28T21:22:06.973Z,7.40
2022-09-28T21:27:10.745Z,6.95
2022-09-28T21:32:13.162Z,12.38
2022-09-28T21:37:16.643Z,37.17
2022-09-28T21:42:20.904Z,25.30
2022-09-28T21:47:23.375Z,11.02
2022-09-28T21:52:26.165Z,10.70
2022-09-28T21:57:30.115Z,9.55
2022-09-28T22:02:32.795Z,8.35
2022-09-28T22:07:35.749Z,7.68
2022-09-28T22:12:39.995Z,6.30
2022-09-28T22:17:42.719Z,5.47
2022-09-28T22:22:49.486Z,7.10
2022-09-28T22:27:54.250Z,47.85
2022-09-28T22:32:56.833Z,17.73
2022-09-28T22:38:00.426Z,6.07
2022-09-28T22:43:04.142Z,4.95
2022-09-28T22:48:06.493Z,7.13
2022-09-28T22:53:09.319Z,12.20
2022-09-28T22:58:13.539Z,29.52
2022-09-28T23:03:17.314Z,4.55
2022-09-28T23:08:19.683Z,6.40
2022-09-28T23:13:23.450Z,5.40
2022-09-28T23:18:27.467Z,7.85
2022-09-28T23:23:31.186Z,6.20
2022-09-28T23:28:34.856Z,5.32
2022-09-28T23:33:37.351Z,4.75
2022-09-28T23:38:40.069Z,3.70
2022-09-28T23:43:44.949Z,4.68
2022-09-28T23:48:47.286Z,5.07
2022-09-28T23:53:49.647Z,5.55
2022-09-28T23:58:53.378Z,5.43
